Maersk Iowa — KABL — position and weather

sailwx.info

Track history (hours):
 
Tides and Currents Weather Stations Pressure Air Temp Water Temp Dewpoint Dewpoint Depression Visibility Wind Speed Wind Dir Waves Ship Positions

Maersk Iowa

Owner: FARRELL LINES INC, Norfolk, VA. More information available from US FCC via Universal Licensing System and Coast Guard Vessel Documentation Center.

Last reported at 2015-Aug-03 00:00 UTC. Time now 2015-Aug-03 19:10 UTC.
Position N 42°06' W 052°24'.

Length 292 m; draft 11.9 m.

Type: Ship (hazmat cat A). MMSI: 367606000.

Wind from 280 at 7 knots

Waves 0.5 meters (2 feet), 2 second period

Barometer 1017.0 mb
Air temperature 23.0 ° C
Visibility: greater than 10.8 NM
Dewpoint 19.9 ° C
Water temperature 22.0 ° C

Date/timePositionNaut miles runAvg speedWind from/ knotsBaromVisibWave heightAir tempDewpointWater temp
2015-Aug-03 00:00N 42°06' W 052°24'10918.2 280 / 71017.010.8 0.523.019.922.0
2015-Aug-02 18:00N 41°30' W 054°42'44118.4 280 / 111015.910.8 1.025.020.4
2015-Aug-01 18:00N 39°06' W 063°48'22318.6 230 / 211010.510.8 2.527.022.6
2015-Aug-01 06:00N 37°54' W 068°18'13918.4 220 / 261009.3 5.4 2.526.023.1
2015-Jul-31 22:28N 37°29' W 071°10'7917.8
2015-Jul-31 18:00N 37°12' W 072°48'12516.4 050 / 31012.010.8 1.028.324.327.6
2015-Jul-31 10:24N 36°51' W 075°22'47 3.0
2015-Jul-30 18:33N 36°52' W 076°21'0 0.0
2015-Jul-30 15:18N 36°53' W 076°21'26 8.3
2015-Jul-30 12:10N 36°51' W 075°48'812.5
2015-Jul-30 11:32N 36°46' W 075°41'1414.7
2015-Jul-30 10:33N 36°35' W 075°29'1514.7
2015-Jul-30 09:31N 36°23' W 075°17'1414.6
2015-Jul-30 08:33N 36°13' W 075°05'24817.1
2015-Jul-29 18:00N 32°30' W 077°18'34917.0 350 / 121014.310.8 1.028.023.7
2015-Jul-28 21:31N 27°05' W 079°45'1818.7
2015-Jul-28 20:33N 26°48' W 079°47'1918.6
2015-Jul-28 19:33N 26°29' W 079°49'1919.4
2015-Jul-28 18:33N 26°10' W 079°50'1919.3
2015-Jul-28 17:33N 25°50' W 079°52'2019.9
2015-Jul-28 16:33N 25°30' W 079°53'2019.3
2015-Jul-28 15:30N 25°12' W 080°03'82416.8
2015-Jul-26 14:29N 29°21' W 094°47'1212.7
2015-Jul-26 13:33N 29°31' W 094°53'8 8.5
2015-Jul-26 12:33N 29°37' W 095°00'0 0.1
2015-Jul-26 11:33N 29°37' W 095°00'0 0.0
2015-Jul-26 10:34N 29°37' W 095°00'0 0.0
2015-Jul-26 09:33N 29°37' W 095°00'0 0.0
2015-Jul-26 08:33N 29°37' W 095°00'0 0.0
2015-Jul-26 07:33N 29°37' W 095°00'0 0.0
2015-Jul-26 06:33N 29°37' W 095°00'0 0.0
2015-Jul-26 05:33N 29°37' W 095°00'0 0.0
2015-Jul-26 04:33N 29°37' W 095°00'0 0.0
2015-Jul-26 03:34N 29°37' W 095°00'0 0.0
2015-Jul-26 02:34N 29°37' W 095°00'0 0.0
2015-Jul-26 01:34N 29°37' W 095°00'0 0.0
2015-Jul-26 00:34N 29°37' W 095°00'0 0.0
2015-Jul-25 23:34N 29°37' W 095°00'0 0.0
2015-Jul-25 22:34N 29°37' W 095°00'0 0.0
2015-Jul-25 21:33N 29°37' W 095°00'0 0.0
2015-Jul-25 20:33N 29°37' W 095°00'0 0.0
2015-Jul-25 19:33N 29°37' W 095°00'0 0.0
2015-Jul-25 18:33N 29°37' W 095°00'0 0.0
2015-Jul-25 17:33N 29°37' W 095°00'0 0.0
2015-Jul-25 16:33N 29°37' W 095°00'0 0.0
2015-Jul-25 15:33N 29°37' W 095°00'0 0.0
2015-Jul-25 14:33N 29°37' W 095°00'0 0.0
2015-Jul-25 13:34N 29°37' W 095°00'0 0.0
2015-Jul-25 12:33N 29°37' W 095°00'0 0.0
2015-Jul-25 11:33N 29°37' W 095°00'0 0.3
2015-Jul-25 10:33N 29°37' W 095°01'8 7.8
2015-Jul-25 09:33N 29°32' W 094°54'1312.5
2015-Jul-25 08:32N 29°21' W 094°47'  
Track history (hours):
 
Tides and Currents Weather Stations Pressure Air Temp Water Temp Dewpoint Dewpoint Depression Visibility Wind Speed Wind Dir Waves Ship Positions

Maersk Iowa

Owner: FARRELL LINES INC, Norfolk, VA. More information available from US FCC via Universal Licensing System and Coast Guard Vessel Documentation Center.

Last reported at 2015-Aug-03 00:00 UTC. Time now 2015-Aug-03 19:10 UTC.
Position N 42°06' W 052°24'.

Length 292 m; draft 11.9 m.

Type: Ship (hazmat cat A). MMSI: 367606000.

Wind from 280 at 7 knots

Waves 0.5 meters (2 feet), 2 second period

Barometer 1017.0 mb
Air temperature 23.0 ° C
Visibility: greater than 10.8 NM
Dewpoint 19.9 ° C
Water temperature 22.0 ° C

Date/timePositionNaut miles runAvg speedWind from/ knotsBaromVisibWave heightAir tempDewpointWater temp
2015-Aug-03 00:00N 42°06' W 052°24'10918.2 280 / 71017.010.8 0.523.019.922.0
2015-Aug-02 18:00N 41°30' W 054°42'44118.4 280 / 111015.910.8 1.025.020.4
2015-Aug-01 18:00N 39°06' W 063°48'22318.6 230 / 211010.510.8 2.527.022.6
2015-Aug-01 06:00N 37°54' W 068°18'13918.4 220 / 261009.3 5.4 2.526.023.1
2015-Jul-31 22:28N 37°29' W 071°10'7917.8
2015-Jul-31 18:00N 37°12' W 072°48'12516.4 050 / 31012.010.8 1.028.324.327.6
2015-Jul-31 10:24N 36°51' W 075°22'47 3.0
2015-Jul-30 18:33N 36°52' W 076°21'0 0.0
2015-Jul-30 15:18N 36°53' W 076°21'26 8.3
2015-Jul-30 12:10N 36°51' W 075°48'812.5
2015-Jul-30 11:32N 36°46' W 075°41'1414.7
2015-Jul-30 10:33N 36°35' W 075°29'1514.7
2015-Jul-30 09:31N 36°23' W 075°17'1414.6
2015-Jul-30 08:33N 36°13' W 075°05'24817.1
2015-Jul-29 18:00N 32°30' W 077°18'34917.0 350 / 121014.310.8 1.028.023.7
2015-Jul-28 21:31N 27°05' W 079°45'1818.7
2015-Jul-28 20:33N 26°48' W 079°47'1918.6
2015-Jul-28 19:33N 26°29' W 079°49'1919.4
2015-Jul-28 18:33N 26°10' W 079°50'1919.3
2015-Jul-28 17:33N 25°50' W 079°52'2019.9
2015-Jul-28 16:33N 25°30' W 079°53'2019.3
2015-Jul-28 15:30N 25°12' W 080°03'82416.8
2015-Jul-26 14:29N 29°21' W 094°47'1212.7
2015-Jul-26 13:33N 29°31' W 094°53'8 8.5
2015-Jul-26 12:33N 29°37' W 095°00'0 0.1
2015-Jul-26 11:33N 29°37' W 095°00'0 0.0
2015-Jul-26 10:34N 29°37' W 095°00'0 0.0
2015-Jul-26 09:33N 29°37' W 095°00'0 0.0
2015-Jul-26 08:33N 29°37' W 095°00'0 0.0
2015-Jul-26 07:33N 29°37' W 095°00'0 0.0
2015-Jul-26 06:33N 29°37' W 095°00'0 0.0
2015-Jul-26 05:33N 29°37' W 095°00'0 0.0
2015-Jul-26 04:33N 29°37' W 095°00'0 0.0
2015-Jul-26 03:34N 29°37' W 095°00'0 0.0
2015-Jul-26 02:34N 29°37' W 095°00'0 0.0
2015-Jul-26 01:34N 29°37' W 095°00'0 0.0
2015-Jul-26 00:34N 29°37' W 095°00'0 0.0
2015-Jul-25 23:34N 29°37' W 095°00'0 0.0
2015-Jul-25 22:34N 29°37' W 095°00'0 0.0
2015-Jul-25 21:33N 29°37' W 095°00'0 0.0
2015-Jul-25 20:33N 29°37' W 095°00'0 0.0
2015-Jul-25 19:33N 29°37' W 095°00'0 0.0
2015-Jul-25 18:33N 29°37' W 095°00'0 0.0
2015-Jul-25 17:33N 29°37' W 095°00'0 0.0
2015-Jul-25 16:33N 29°37' W 095°00'0 0.0
2015-Jul-25 15:33N 29°37' W 095°00'0 0.0
2015-Jul-25 14:33N 29°37' W 095°00'0 0.0
2015-Jul-25 13:34N 29°37' W 095°00'0 0.0
2015-Jul-25 12:33N 29°37' W 095°00'0 0.0
2015-Jul-25 11:33N 29°37' W 095°00'0 0.3
2015-Jul-25 10:33N 29°37' W 095°01'8 7.8
2015-Jul-25 09:33N 29°32' W 094°54'1312.5
2015-Jul-25 08:32N 29°21' W 094°47'  

Dump ship's entire track history